Time;durP1;ratioP1;P1;durP2;ratioP2;P2;SDS_P1;SDS_P2;PMS_P1;PMS_P2;Temp;Humidity;BMP_temperature;BMP_pressure;BME280_temperature;BME280_humidity;BME280_pressure;Samples;Min_cycle;Max_cycle;Signal;HPM_P1;HPM_P2
2023/03/29 00:00:44;;;;;;;12.15;6.35;;;;;;;7.32;100.00;100770.03;8321627;28;20057;-54
2023/03/29 00:04:44;;;;;;;10.43;5.53;;;;;;;7.29;100.00;100767.56;8319219;28;20049;-54
2023/03/29 00:08:45;;;;;;;8.05;5.50;;;;;;;7.30;100.00;100769.31;8322423;28;20037;-55
2023/03/29 00:12:45;;;;;;;10.07;5.55;;;;;;;7.31;100.00;100762.94;8323704;28;20052;-55
2023/03/29 00:16:46;;;;;;;12.43;5.55;;;;;;;7.32;100.00;100756.59;8321217;28;20041;-55
2023/03/29 00:21:03;;;;;;;6.45;4.68;;;;;;;7.38;100.00;100747.22;8320979;28;20056;-53
2023/03/29 00:25:06;;;;;;;10.32;5.88;;;;;;;7.36;100.00;100744.66;8319324;28;20542;-53
2023/03/29 00:29:06;;;;;;;9.05;5.32;;;;;;;7.37;99.89;100740.09;8320645;28;20037;-53
2023/03/29 00:33:07;;;;;;;13.60;5.95;;;;;;;7.34;100.00;100737.63;8319982;28;20045;-53
2023/03/29 00:37:08;;;;;;;9.55;5.30;;;;;;;7.39;99.52;100739.03;8320158;28;20038;-53
2023/03/29 00:41:09;;;;;;;9.10;4.88;;;;;;;7.45;98.91;100743.09;8319287;28;20519;-54
2023/03/29 00:49:22;;;;;;;9.30;4.35;;;;;;;7.58;97.91;100727.72;8350222;27;20400;-53
2023/03/29 00:53:47;;;;;;;8.25;4.63;;;;;;;7.53;97.84;100719.13;8347756;28;20407;-52
2023/03/29 00:57:51;;;;;;;9.65;4.68;;;;;;;7.52;98.58;100706.66;8347003;28;20051;-58
2023/03/29 01:01:57;;;;;;;7.57;4.00;;;;;;;7.51;97.92;100697.72;8363080;28;20040;-59
2023/03/29 01:06:04;;;;;;;7.53;4.07;;;;;;;7.53;98.32;100701.19;8384878;28;20485;-59
2023/03/29 01:10:11;;;;;;;8.43;3.58;;;;;;;7.47;98.41;100690.00;8384888;28;20048;-60
2023/03/29 01:14:20;;;;;;;4.20;3.15;;;;;;;7.45;98.96;100690.16;8384656;28;20040;-60
2023/03/29 01:18:21;;;;;;;9.05;4.53;;;;;;;7.47;99.38;100690.00;8384133;28;20160;-60
2023/03/29 01:22:37;;;;;;;6.28;3.75;;;;;;;7.47;99.24;100688.19;8366654;28;20037;-60
2023/03/29 01:26:59;;;;;;;5.82;3.63;;;;;;;7.51;98.34;100678.91;8351607;28;20392;-60
2023/03/29 01:31:07;;;;;;;7.28;3.83;;;;;;;7.61;97.69;100669.19;8321544;28;20092;-60
2023/03/29 01:35:21;;;;;;;7.78;3.78;;;;;;;7.56;97.51;100659.72;8317520;28;20038;-60
2023/03/29 01:39:23;;;;;;;6.85;3.65;;;;;;;7.60;97.34;100664.75;8350868;28;20470;-59
2023/03/29 01:43:38;;;;;;;4.65;3.03;;;;;;;7.66;96.62;100656.19;8350579;28;20314;-59
2023/03/29 01:47:54;;;;;;;6.55;3.85;;;;;;;7.71;95.55;100651.34;8350218;28;20149;-60
2023/03/29 01:52:02;;;;;;;9.00;3.03;;;;;;;7.74;94.82;100653.78;8334679;28;20041;-60
2023/03/29 01:56:12;;;;;;;4.78;3.38;;;;;;;7.90;93.14;100645.38;8349163;28;20045;-60
2023/03/29 02:00:16;;;;;;;7.70;3.50;;;;;;;7.89;93.79;100649.91;8297881;28;20038;-60
2023/03/29 02:04:22;;;;;;;6.40;3.40;;;;;;;7.95;93.26;100651.25;8295274;28;20412;-57
2023/03/29 02:08:24;;;;;;;6.15;3.30;;;;;;;7.96;93.20;100643.03;8295631;28;20038;-58
2023/03/29 02:12:25;;;;;;;5.18;3.45;;;;;;;8.03;92.92;100638.03;8294952;28;20053;-58
2023/03/29 02:16:26;;;;;;;5.78;3.60;;;;;;;7.99;92.87;100637.41;8295112;28;20152;-57
2023/03/29 02:20:30;;;;;;;5.22;3.67;;;;;;;8.01;94.17;100638.16;8295420;28;20045;-58
2023/03/29 02:24:33;;;;;;;6.68;3.38;;;;;;;7.93;96.26;100632.53;8327520;28;20037;-58
2023/03/29 02:28:34;;;;;;;7.80;4.57;;;;;;;7.90;96.39;100621.16;8326393;28;20535;-58
2023/03/29 02:32:50;;;;;;;7.50;3.70;;;;;;;7.89;96.26;100620.28;8326783;28;20053;-58
2023/03/29 02:36:55;;;;;;;4.78;3.95;;;;;;;8.03;93.84;100606.56;8327343;28;20503;-58
2023/03/29 02:40:58;;;;;;;6.72;3.35;;;;;;;8.09;91.64;100611.47;8326856;28;20068;-58
2023/03/29 02:45:00;;;;;;;7.22;3.20;;;;;;;8.17;92.50;100607.34;8325923;28;20049;-58
2023/03/29 02:49:01;;;;;;;6.65;3.00;;;;;;;8.16;92.76;100617.22;8326959;28;20034;-58
2023/03/29 02:53:12;;;;;;;8.15;3.58;;;;;;;8.17;93.32;100613.56;8325379;28;20058;-58
2023/03/29 02:57:14;;;;;;;5.90;3.07;;;;;;;8.22;91.74;100621.25;8322903;28;20044;-58
2023/03/29 03:01:19;;;;;;;6.43;4.07;;;;;;;8.21;93.84;100620.44;8328980;28;20038;-59
2023/03/29 03:05:19;;;;;;;9.38;3.60;;;;;;;8.10;97.29;100623.09;8326306;28;20036;-54
2023/03/29 03:09:20;;;;;;;10.98;3.65;;;;;;;7.99;98.99;100620.41;8325295;28;20038;-54
2023/03/29 03:13:21;;;;;;;8.68;4.47;;;;;;;7.97;98.99;100607.06;8316934;28;20419;-54
2023/03/29 03:17:21;;;;;;;8.85;4.15;;;;;;;8.01;97.95;100600.47;8292294;28;20137;-58
2023/03/29 03:21:24;;;;;;;5.25;2.85;;;;;;;8.07;96.99;100605.38;8297943;28;20037;-57
2023/03/29 03:25:27;;;;;;;8.43;3.47;;;;;;;8.07;95.84;100597.28;8325162;28;20195;-58
2023/03/29 03:29:28;;;;;;;5.28;3.72;;;;;;;8.09;95.90;100594.47;8325020;28;20049;-58
2023/03/29 03:33:47;;;;;;;7.00;3.45;;;;;;;8.12;95.42;100587.97;8307884;28;20370;-57
2023/03/29 03:38:04;;;;;;;6.97;3.13;;;;;;;8.18;94.92;100584.78;8292545;28;20045;-58
2023/03/29 03:42:05;;;;;;;8.20;3.55;;;;;;;8.24;94.09;100581.66;8292254;28;20096;-58
2023/03/29 03:46:07;;;;;;;6.70;3.03;;;;;;;8.20;93.60;100581.00;8292309;28;20033;-58
2023/03/29 03:50:09;;;;;;;7.53;3.15;;;;;;;8.25;93.96;100577.97;8292456;28;20475;-58
2023/03/29 03:54:10;;;;;;;5.18;3.03;;;;;;;8.25;94.03;100573.44;8319789;28;20407;-58
2023/03/29 03:58:22;;;;;;;8.57;3.33;;;;;;;8.30;93.59;100578.44;8354994;27;20483;-57
2023/03/29 04:02:22;;;;;;;7.93;3.30;;;;;;;8.36;93.25;100580.66;8351551;28;20430;-58
2023/03/29 04:06:24;;;;;;;5.57;3.00;;;;;;;8.36;94.42;100570.75;8343471;28;20106;-58
2023/03/29 04:10:55;;;;;;;8.45;2.83;;;;;;;8.37;94.60;100567.06;8313683;28;20226;-58
2023/03/29 04:15:01;;;;;;;6.10;3.05;;;;;;;8.41;94.76;100568.50;8324105;28;20038;-58
2023/03/29 04:19:02;;;;;;;6.35;3.10;;;;;;;8.44;95.12;100567.38;8294453;28;20470;-58
2023/03/29 04:23:03;;;;;;;4.10;3.03;;;;;;;8.36;96.45;100567.19;8326651;28;20034;-58
2023/03/29 04:27:04;;;;;;;8.25;3.90;;;;;;;8.37;95.92;100569.75;8322434;28;20116;-58
2023/03/29 04:31:10;;;;;;;7.70;4.25;;;;;;;8.42;95.36;100564.00;8297350;28;20038;-60
2023/03/29 04:35:19;;;;;;;;;;;;;;;8.45;95.54;100569.97;8316058;28;20586;-59
2023/03/29 04:39:20;;;;;;;6.30;3.22;;;;;;;8.48;95.30;100553.53;8316180;28;20335;-60
2023/03/29 04:43:26;;;;;;;7.07;3.38;;;;;;;8.47;94.96;100556.34;8310148;28;20033;-60
2023/03/29 04:47:35;;;;;;;6.07;2.85;;;;;;;8.47;95.51;100546.44;8313858;28;20281;-60
2023/03/29 04:51:42;;;;;;;6.40;3.58;;;;;;;8.47;95.83;100550.97;8314132;28;20100;-62
2023/03/29 04:55:45;;;;;;;7.80;3.70;;;;;;;8.46;96.55;100539.38;8307361;28;20046;-60
2023/03/29 04:59:49;;;;;;;6.20;3.13;;;;;;;8.43;97.13;100544.13;8291279;28;20049;-59
2023/03/29 05:04:02;;;;;;;7.07;3.78;;;;;;;8.44;97.21;100545.84;8310580;28;20041;-60
2023/03/29 05:08:11;;;;;;;8.75;3.50;;;;;;;8.45;97.32;100548.41;8295704;28;20042;-60
2023/03/29 05:12:31;;;;;;;7.70;3.90;;;;;;;8.53;96.83;100550.47;8278433;28;20045;-60
2023/03/29 05:16:33;;;;;;;3.55;2.95;;;;;;;8.56;96.12;100553.78;8314622;28;20531;-60
2023/03/29 05:20:34;;;;;;;5.07;2.97;;;;;;;8.64;95.06;100547.75;8315836;28;20045;-58
2023/03/29 05:24:40;;;;;;;6.20;3.67;;;;;;;8.64;94.07;100553.16;8264307;28;20407;-58
2023/03/29 05:28:48;;;;;;;6.32;4.18;;;;;;;8.64;94.68;100548.63;8280780;28;20037;-58
2023/03/29 05:32:49;;;;;;;5.70;3.95;;;;;;;8.67;94.97;100539.41;8316426;28;20045;-57
2023/03/29 05:36:55;;;;;;;7.45;3.75;;;;;;;8.73;93.56;100531.69;8309917;28;20038;-53
2023/03/29 05:40:58;;;;;;;7.35;4.20;;;;;;;8.71;93.84;100539.03;8290291;28;20073;-53
2023/03/29 05:45:19;;;;;;;10.40;4.35;;;;;;;8.74;94.32;100543.31;8290185;28;20186;-52
2023/03/29 05:49:20;;;;;;;6.90;3.95;;;;;;;8.83;93.29;100534.44;8291255;28;20042;-53
2023/03/29 05:53:36;;;;;;;7.40;4.95;;;;;;;9.01;92.00;100527.50;8288029;28;20050;-53
2023/03/29 05:57:37;;;;;;;9.82;5.57;;;;;;;9.13;91.18;100529.16;8304565;28;20045;-59
2023/03/29 06:01:38;;;;;;;12.40;7.43;;;;;;;9.22;90.85;100525.66;8326449;28;20045;-59
2023/03/29 06:05:41;;;;;;;9.55;4.90;;;;;;;9.27;90.17;100526.13;8326932;28;20072;-59
2023/03/29 06:09:43;;;;;;;12.20;5.78;;;;;;;9.27;90.83;100526.97;8326498;28;20046;-54
2023/03/29 06:13:44;;;;;;;15.65;8.27;;;;;;;9.36;91.40;100514.53;8326155;28;20041;-54
2023/03/29 06:17:45;;;;;;;7.60;4.47;;;;;;;9.47;91.73;100522.56;8325981;28;20293;-54
2023/03/29 06:21:47;;;;;;;7.30;4.35;;;;;;;9.49;92.11;100520.59;8313015;28;20056;-54
2023/03/29 06:25:54;;;;;;;6.78;3.90;;;;;;;9.60;92.29;100523.19;8324111;28;20046;-54
2023/03/29 06:29:55;;;;;;;5.97;4.10;;;;;;;9.62;92.51;100527.47;8293627;28;20049;-54
2023/03/29 06:33:57;;;;;;;8.10;3.88;;;;;;;9.77;91.40;100527.97;8292553;28;20062;-54
2023/03/29 06:38:18;;;;;;;10.65;5.13;;;;;;;9.90;91.03;100525.88;8264273;28;20411;-59
2023/03/29 06:42:38;;;;;;;8.52;4.05;;;;;;;9.99;89.58;100533.16;8260126;28;20568;-59
2023/03/29 06:46:59;;;;;;;14.23;8.02;;;;;;;10.12;90.12;100530.28;8320679;28;20419;-59
2023/03/29 06:51:00;;;;;;;21.10;8.80;;;;;;;10.14;89.59;100539.94;8317952;28;20073;-59
2023/03/29 06:55:06;;;;;;;16.48;5.57;;;;;;;10.03;89.91;100537.28;8304534;28;20033;-59
2023/03/29 06:59:07;;;;;;;11.20;4.25;;;;;;;10.08;91.02;100548.59;8286593;28;20557;-59
2023/03/29 07:03:23;;;;;;;7.18;3.85;;;;;;;10.07;93.67;100544.19;8272054;28;20046;-59
2023/03/29 07:07:38;;;;;;;7.20;3.85;;;;;;;9.98;95.80;100544.97;8322175;28;20037;-54
2023/03/29 07:11:51;;;;;;;8.98;4.28;;;;;;;10.17;94.72;100539.66;8312672;28;20365;-53
2023/03/29 07:15:56;;;;;;;6.22;4.05;;;;;;;10.31;94.04;100558.19;8295709;28;20038;-53
2023/03/29 07:20:13;;;;;;;7.35;3.67;;;;;;;10.50;92.68;100547.44;8291849;28;20132;-54
2023/03/29 07:24:21;;;;;;;9.75;3.65;;;;;;;10.67;92.23;100543.19;8258245;28;20394;-59
2023/03/29 07:28:21;;;;;;;8.90;3.92;;;;;;;10.80;92.15;100551.88;8293854;28;20033;-59
2023/03/29 07:32:22;;;;;;;6.65;4.03;;;;;;;10.90;91.59;100550.91;8323736;28;20147;-59
2023/03/29 07:36:33;;;;;;;9.25;4.30;;;;;;;11.12;90.66;100550.59;8324356;28;20060;-54
2023/03/29 07:40:34;;;;;;;8.18;3.88;;;;;;;11.31;90.28;100547.00;8323992;28;20171;-54
2023/03/29 07:44:54;;;;;;;8.20;4.30;;;;;;;11.51;90.98;100549.56;8324263;28;20038;-54
2023/03/29 07:48:56;;;;;;;6.70;3.72;;;;;;;11.70;88.89;100549.53;8324221;28;20400;-54
2023/03/29 07:52:56;;;;;;;4.75;3.13;;;;;;;11.79;86.12;100556.78;8302767;28;20119;-54
2023/03/29 07:56:57;;;;;;;8.13;3.47;;;;;;;11.97;87.47;100547.88;8296975;28;20041;-54
2023/03/29 08:01:14;;;;;;;9.87;3.60;;;;;;;12.07;87.41;100544.13;8323697;28;20495;-55
2023/03/29 08:05:35;;;;;;;16.50;4.13;;;;;;;12.21;88.16;100559.03;8323712;28;20284;-55
2023/03/29 08:09:43;;;;;;;7.15;3.40;;;;;;;12.25;86.55;100546.88;8323597;28;20061;-54
2023/03/29 08:13:45;;;;;;;9.00;3.30;;;;;;;12.36;87.14;100546.69;8323089;28;20626;-54
2023/03/29 08:18:06;;;;;;;6.57;3.33;;;;;;;12.54;86.05;100551.16;8345437;28;20045;-53
2023/03/29 08:22:07;;;;;;;5.72;3.25;;;;;;;12.54;85.40;100561.13;8308959;28;20504;-53
2023/03/29 08:26:27;;;;;;;8.25;3.33;;;;;;;12.53;84.97;100559.44;8292513;28;20061;-53
2023/03/29 08:30:30;;;;;;;9.70;3.45;;;;;;;12.58;85.73;100555.25;8323361;28;20037;-60
2023/03/29 08:34:31;;;;;;;6.28;3.38;;;;;;;12.59;86.46;100562.38;8321742;28;20033;-60
2023/03/29 08:38:49;;;;;;;4.40;3.28;;;;;;;12.71;86.92;100563.00;8311713;28;20128;-60
2023/03/29 08:43:20;;;;;;;6.68;2.97;;;;;;;12.79;84.19;100557.69;8325269;28;20073;-59
2023/03/29 08:48:12;;;;;;;7.13;2.67;;;;;;;12.98;83.20;100554.81;8328619;28;20458;-54
2023/03/29 08:52:38;;;;;;;8.63;3.10;;;;;;;13.00;82.84;100547.41;8313591;28;20155;-54
2023/03/29 08:57:01;;;;;;;5.72;2.70;;;;;;;12.96;83.97;100554.13;8274784;28;20099;-54
2023/03/29 09:01:08;;;;;;;7.15;2.80;;;;;;;12.90;83.44;100552.88;8328803;28;20527;-54
2023/03/29 09:05:27;;;;;;;6.78;2.47;;;;;;;12.91;83.83;100537.47;8328378;28;20041;-54
2023/03/29 09:09:41;;;;;;;7.35;2.53;;;;;;;13.03;83.33;100545.25;8328424;28;20092;-54
2023/03/29 09:14:12;;;;;;;8.95;2.63;;;;;;;13.07;84.08;100540.34;8327942;28;20128;-54
2023/03/29 09:18:39;;;;;;;8.73;2.80;;;;;;;13.17;83.55;100558.25;8328176;28;20495;-54
2023/03/29 09:22:49;;;;;;;5.20;2.60;;;;;;;13.38;83.98;100545.22;8309043;28;20100;-54
2023/03/29 09:27:13;;;;;;;6.72;2.17;;;;;;;13.53;82.71;100545.47;8295475;28;20527;-55
2023/03/29 09:31:24;;;;;;;5.45;3.05;;;;;;;13.67;81.82;100545.75;8294635;28;20507;-55
2023/03/29 09:35:35;;;;;;;6.55;2.72;;;;;;;13.74;81.06;100533.25;8295218;28;20408;-55
2023/03/29 09:39:38;;;;;;;6.20;2.92;;;;;;;13.92;80.20;100532.31;8295386;28;20154;-54
2023/03/29 09:43:44;;;;;;;5.25;2.65;;;;;;;13.85;80.08;100537.56;8293799;28;20041;-55
2023/03/29 09:47:59;;;;;;;7.85;3.53;;;;;;;13.92;79.60;100516.88;8294126;28;20069;-54
2023/03/29 09:52:10;;;;;;;7.15;2.67;;;;;;;13.92;80.59;100527.75;8293988;28;20500;-54
2023/03/29 09:56:14;;;;;;;7.00;3.20;;;;;;;14.28;79.54;100529.31;8294024;28;20535;-55
2023/03/29 10:00:21;;;;;;;6.53;3.25;;;;;;;14.46;80.21;100527.34;8258972;28;20042;-54
2023/03/29 10:04:21;;;;;;;12.93;3.70;;;;;;;14.70;79.74;100523.84;8261329;28;20085;-55
2023/03/29 10:08:35;;;;;;;7.40;2.80;;;;;;;14.97;78.09;100520.78;8261560;28;20093;-55
2023/03/29 10:12:37;;;;;;;6.15;2.42;;;;;;;14.95;76.83;100525.56;8275944;28;20042;-55
2023/03/29 10:16:40;;;;;;;9.40;2.47;;;;;;;15.07;77.04;100522.34;8261199;28;20445;-55
2023/03/29 10:20:41;;;;;;;6.80;2.70;;;;;;;15.42;76.08;100513.88;8263050;28;20557;-54
2023/03/29 10:24:48;;;;;;;9.13;2.70;;;;;;;15.74;75.80;100515.69;8293353;28;20396;-55
2023/03/29 10:28:52;;;;;;;7.10;2.67;;;;;;;16.10;75.11;100499.75;8296370;28;20411;-55
2023/03/29 10:32:56;;;;;;;4.90;1.98;;;;;;;16.36;74.10;100517.53;8289126;28;20042;-55
2023/03/29 10:36:59;;;;;;;4.80;1.77;;;;;;;16.14;74.49;100506.53;8290693;28;20038;-54
2023/03/29 10:41:05;;;;;;;6.93;2.00;;;;;;;15.91;73.95;100503.72;8290185;28;20372;-55
2023/03/29 10:45:20;;;;;;;8.40;1.92;;;;;;;15.72;74.54;100517.72;8291502;28;20407;-55
2023/03/29 10:49:22;;;;;;;5.90;2.08;;;;;;;15.54;74.84;100504.31;8290631;28;20038;-55
2023/03/29 10:53:33;;;;;;;3.70;2.13;;;;;;;15.59;75.09;100501.06;8290175;28;20121;-55
2023/03/29 10:57:48;;;;;;;6.10;2.22;;;;;;;15.69;74.82;100499.88;8301726;28;20063;-55
2023/03/29 11:02:16;;;;;;;3.75;2.28;;;;;;;15.71;76.30;100484.16;8321034;28;20049;-59
2023/03/29 11:06:29;;;;;;;5.28;1.92;;;;;;;15.86;74.61;100486.19;8321925;28;20064;-58
2023/03/29 11:10:55;;;;;;;4.03;1.80;;;;;;;16.07;74.38;100489.19;8322424;28;20459;-59
2023/03/29 11:15:09;;;;;;;7.65;2.30;;;;;;;16.11;74.55;100487.78;8321657;28;20517;-58
2023/03/29 11:19:24;;;;;;;;;;;;;;;15.90;75.24;100488.38;8322323;28;20470;-59
2023/03/29 11:23:50;;;;;;;3.33;1.25;;;;;;;15.97;75.91;100483.06;8294665;28;19918;-54
2023/03/29 11:32:19;;;;;;;4.10;1.30;;;;;;;16.36;73.59;100483.91;8416488;27;20460;-53
2023/03/29 11:36:29;;;;;;;4.47;1.67;;;;;;;16.47;71.97;100480.84;8416599;28;20028;-53
2023/03/29 11:40:54;;;;;;;9.63;2.15;;;;;;;16.39;72.50;100478.09;8416480;28;20040;-54
2023/03/29 11:44:57;;;;;;;6.43;2.05;;;;;;;16.66;72.35;100469.44;8415305;28;20422;-54
2023/03/29 11:49:12;;;;;;;6.93;2.17;;;;;;;17.25;71.06;100465.91;8415537;28;20098;-53
2023/03/29 11:53:21;;;;;;;5.75;2.22;;;;;;;17.72;67.57;100452.81;8415665;28;20305;-54
2023/03/29 11:57:32;;;;;;;8.55;2.42;;;;;;;18.04;67.40;100463.38;8415673;28;20097;-55
2023/03/29 12:01:38;;;;;;;4.38;1.67;;;;;;;19.44;64.15;100462.66;8413886;28;20064;-53
2023/03/29 12:06:05;;;;;;;9.45;2.22;;;;;;;20.69;60.57;100455.97;8414339;28;20131;-53
2023/03/29 12:10:18;;;;;;;4.85;1.58;;;;;;;20.22;60.39;100447.75;8414331;28;20124;-53
2023/03/29 12:14:27;;;;;;;6.23;2.10;;;;;;;19.84;61.68;100449.19;8415352;28;20063;-53
2023/03/29 12:18:35;;;;;;;5.68;1.73;;;;;;;18.90;63.35;100442.31;8414189;28;20279;-53
2023/03/29 12:22:36;;;;;;;8.45;1.77;;;;;;;18.02;65.99;100437.25;8415081;28;20538;-53
2023/03/29 12:27:03;;;;;;;9.48;1.90;;;;;;;17.67;68.47;100432.53;8414088;28;20138;-53
2023/03/29 12:31:43;;;;;;;3.67;1.77;;;;;;;18.46;66.19;100419.72;8394085;28;20040;-53
2023/03/29 12:36:11;;;;;;;2.90;1.45;;;;;;;21.26;59.84;100399.38;8395909;28;20042;-53
2023/03/29 12:40:41;;;;;;;5.85;1.40;;;;;;;21.90;57.66;100416.06;8407545;28;20483;-53
2023/03/29 12:45:01;;;;;;;4.80;1.25;;;;;;;21.38;59.29;100407.84;8391467;28;20032;-53
2023/03/29 12:49:13;;;;;;;4.68;1.67;;;;;;;20.14;60.29;100401.25;8391863;28;20067;-53
2023/03/29 12:53:39;;;;;;;2.67;0.90;;;;;;;19.51;63.41;100412.50;8391112;28;20045;-54
2023/03/29 12:57:43;;;;;;;2.35;1.08;;;;;;;19.65;63.63;100411.53;8390189;28;20047;-54
2023/03/29 13:01:58;;;;;;;2.72;1.30;;;;;;;19.70;64.52;100403.53;8390203;28;20036;-54
2023/03/29 13:06:02;;;;;;;4.93;1.42;;;;;;;19.92;64.20;100405.13;8372940;28;20032;-54
2023/03/29 13:10:27;;;;;;;1.98;0.80;;;;;;;19.66;62.83;100386.63;8389800;28;20040;-54
2023/03/29 13:14:32;;;;;;;2.03;1.30;;;;;;;19.40;64.81;100373.59;8391174;28;20360;-54
2023/03/29 13:18:59;;;;;;;2.25;1.25;;;;;;;19.32;64.31;100379.25;8390348;28;20086;-54
2023/03/29 13:23:37;;;;;;;4.10;1.50;;;;;;;19.16;65.41;100379.50;8376237;28;20029;-54
2023/03/29 13:27:51;;;;;;;2.45;1.10;;;;;;;19.08;65.63;100374.19;8390450;28;20046;-54
2023/03/29 13:32:02;;;;;;;3.78;1.35;;;;;;;18.96;65.83;100373.03;8389417;28;20036;-55
2023/03/29 13:36:42;;;;;;;2.78;1.60;;;;;;;18.86;64.89;100367.03;8389699;28;20090;-54
2023/03/29 13:41:02;;;;;;;2.53;1.55;;;;;;;18.74;66.66;100363.13;8388955;28;20103;-54
2023/03/29 13:45:13;;;;;;;4.28;1.73;;;;;;;18.50;66.88;100355.31;8359769;28;20040;-54
2023/03/29 13:49:22;;;;;;;1.83;1.30;;;;;;;18.24;66.80;100352.25;8352950;28;20500;-54
2023/03/29 13:53:36;;;;;;;2.17;1.30;;;;;;;18.33;64.78;100337.41;8351840;28;20127;-54
2023/03/29 13:57:49;;;;;;;4.80;1.17;;;;;;;18.26;65.82;100330.16;8339101;28;20724;-60
2023/03/29 14:01:56;;;;;;;2.60;1.15;;;;;;;18.43;64.69;100321.56;8377824;28;20032;-60
2023/03/29 14:06:00;;;;;;;5.15;1.45;;;;;;;18.50;66.13;100311.50;8364373;28;20095;-61
2023/03/29 14:10:00;;;;;;;5.78;1.52;;;;;;;18.66;65.53;100304.94;8331915;28;20038;-61
2023/03/29 14:14:04;;;;;;;3.55;1.35;;;;;;;18.69;65.26;100293.53;8338943;28;20041;-61
2023/03/29 14:18:05;;;;;;;3.53;1.10;;;;;;;18.72;65.49;100294.00;8335843;28;20044;-61
2023/03/29 14:22:12;;;;;;;2.90;1.40;;;;;;;18.80;66.92;100291.13;8330722;28;20049;-61
2023/03/29 14:26:18;;;;;;;4.22;1.60;;;;;;;18.91;66.24;100287.81;8331658;28;20487;-61
2023/03/29 14:30:24;;;;;;;4.47;2.28;;;;;;;18.57;67.65;100289.69;8332921;28;20029;-59
2023/03/29 14:34:27;;;;;;;3.85;1.52;;;;;;;18.34;69.21;100287.13;8337960;28;20045;-60
2023/03/29 14:38:29;;;;;;;3.72;1.63;;;;;;;18.18;70.92;100279.16;8335897;28;20041;-60
2023/03/29 14:42:30;;;;;;;4.68;1.25;;;;;;;18.11;72.19;100269.19;8343845;28;20112;-60
2023/03/29 14:46:32;;;;;;;4.15;1.83;;;;;;;18.07;73.30;100271.47;8332529;28;20041;-60
2023/03/29 14:50:33;;;;;;;3.25;1.48;;;;;;;18.13;72.18;100278.91;8331383;28;20045;-59
2023/03/29 14:54:34;;;;;;;3.72;1.52;;;;;;;18.07;73.15;100266.00;8352683;28;20526;-59
2023/03/29 14:58:35;;;;;;;5.10;1.50;;;;;;;18.01;74.48;100255.81;8352655;28;20123;-59
2023/03/29 15:02:36;;;;;;;3.90;1.70;;;;;;;18.01;74.66;100265.91;8351186;28;20036;-54
2023/03/29 15:06:40;;;;;;;4.72;1.95;;;;;;;18.01;74.42;100255.81;8352427;28;20380;-59
2023/03/29 15:10:41;;;;;;;4.15;1.60;;;;;;;17.93;73.98;100247.72;8347610;28;20037;-59
2023/03/29 15:14:41;;;;;;;5.15;2.25;;;;;;;17.82;74.15;100247.41;8352263;28;20061;-59
2023/03/29 15:18:43;;;;;;;5.13;1.80;;;;;;;17.93;74.22;100247.72;8339288;28;20257;-59
2023/03/29 15:27:14;;;;;;;4.60;2.17;;;;;;;17.99;74.53;100227.81;8328646;27;20940;-60
2023/03/29 15:31:18;;;;;;;2.90;1.40;;;;;;;18.07;72.89;100216.75;8295869;28;20056;-55
2023/03/29 15:35:23;;;;;;;2.58;1.23;;;;;;;18.24;72.98;100212.69;8304658;28;20508;-59
2023/03/29 15:39:26;;;;;;;3.20;1.17;;;;;;;18.18;73.61;100210.75;8303802;28;20048;-59
2023/03/29 15:43:27;;;;;;;3.03;1.33;;;;;;;18.27;72.71;100206.81;8312009;28;20082;-53
2023/03/29 15:47:27;;;;;;;3.60;0.98;;;;;;;18.33;73.56;100186.84;8336878;28;20053;-53
2023/03/29 15:51:27;;;;;;;10.07;2.05;;;;;;;18.36;73.92;100178.25;8307461;28;20045;-53
2023/03/29 15:55:28;;;;;;;4.68;1.40;;;;;;;18.53;72.17;100168.75;8311865;28;20073;-58
2023/03/29 15:59:31;;;;;;;4.22;1.10;;;;;;;18.61;72.91;100165.00;8311096;28;20127;-59
2023/03/29 16:03:31;;;;;;;2.60;1.08;;;;;;;18.61;72.48;100154.91;8301700;28;20042;-59
2023/03/29 16:07:32;;;;;;;4.63;1.08;;;;;;;18.74;72.37;100148.66;8313791;28;20076;-59
2023/03/29 16:11:33;;;;;;;4.55;1.10;;;;;;;18.69;72.83;100132.81;8309747;28;20780;-58
2023/03/29 16:15:35;;;;;;;1.80;0.90;;;;;;;18.73;72.84;100131.34;8314007;28;20412;-59
2023/03/29 16:19:36;;;;;;;2.90;0.80;;;;;;;18.77;73.53;100131.81;8309868;28;20511;-59
2023/03/29 16:23:36;;;;;;;4.00;1.15;;;;;;;18.63;75.01;100130.88;8312390;28;20406;-59
2023/03/29 16:27:37;;;;;;;3.72;1.27;;;;;;;18.60;75.59;100114.03;8314806;28;20042;-59
2023/03/29 16:31:37;;;;;;;3.33;1.10;;;;;;;18.60;76.54;100114.03;8311105;28;20176;-55
2023/03/29 16:35:38;;;;;;;4.40;1.45;;;;;;;18.61;78.24;100115.72;8306942;28;20037;-54
2023/03/29 16:39:39;;;;;;;3.38;0.73;;;;;;;18.55;79.32;100108.31;8290573;28;20046;-55
2023/03/29 16:43:41;;;;;;;2.42;1.02;;;;;;;18.44;79.95;100115.19;8292895;28;20037;-54
2023/03/29 16:47:43;;;;;;;1.92;1.25;;;;;;;18.53;79.33;100100.28;8308277;28;20042;-54
2023/03/29 16:51:45;;;;;;;3.97;1.20;;;;;;;18.42;80.36;100103.56;8264947;28;20037;-55
2023/03/29 16:55:46;;;;;;;1.55;1.05;;;;;;;18.32;81.02;100108.53;8289656;28;20054;-55
2023/03/29 16:59:46;;;;;;;4.95;1.55;;;;;;;18.24;81.30;100107.84;8305919;28;20484;-53
2023/03/29 17:03:47;;;;;;;2.15;1.00;;;;;;;18.11;82.16;100102.28;8292076;28;20108;-53
2023/03/29 17:07:47;;;;;;;3.05;1.35;;;;;;;18.09;82.76;100113.44;8275892;28;20092;-53
2023/03/29 17:11:48;;;;;;;3.20;1.30;;;;;;;17.91;83.79;100118.53;8287853;28;20034;-54
2023/03/29 17:15:51;;;;;;;3.75;1.70;;;;;;;17.84;84.30;100116.78;8288527;28;20042;-55
2023/03/29 17:19:51;;;;;;;1.75;1.20;;;;;;;17.70;85.25;100102.16;8288309;28;20062;-54
2023/03/29 17:23:52;;;;;;;3.63;1.42;;;;;;;17.61;85.11;100100.59;8282722;28;20037;-55
2023/03/29 17:27:55;;;;;;;2.75;1.48;;;;;;;17.51;85.05;100094.63;8278225;28;20381;-55
2023/03/29 17:31:55;;;;;;;2.97;1.48;;;;;;;17.38;85.14;100105.34;8290710;28;20042;-55
2023/03/29 17:35:56;;;;;;;3.60;1.42;;;;;;;17.35;84.49;100100.28;8301048;28;20124;-55
2023/03/29 17:39:56;;;;;;;5.65;1.88;;;;;;;17.29;84.46;100093.72;8288394;28;20052;-55
2023/03/29 17:43:57;;;;;;;6.15;1.60;;;;;;;17.38;83.26;100086.22;8296295;28;20034;-54
2023/03/29 17:47:57;;;;;;;5.88;1.55;;;;;;;17.35;82.78;100083.88;8310702;28;20034;-54
2023/03/29 17:51:58;;;;;;;3.38;1.65;;;;;;;17.32;82.70;100084.25;8306407;28;20060;-55
2023/03/29 17:55:58;;;;;;;4.85;1.50;;;;;;;17.37;82.26;100093.59;8287248;28;20342;-55
2023/03/29 17:59:59;;;;;;;6.32;1.77;;;;;;;17.25;82.47;100094.28;8285156;28;20536;-54
2023/03/29 18:04:00;;;;;;;6.35;1.27;;;;;;;17.19;83.07;100095.91;8287936;28;20058;-54
2023/03/29 18:08:01;;;;;;;5.38;1.70;;;;;;;17.18;83.63;100098.84;8286798;28;20041;-55
2023/03/29 18:12:01;;;;;;;8.30;2.00;;;;;;;16.96;84.46;100105.31;8284249;28;20072;-55
2023/03/29 18:16:03;;;;;;;5.25;1.65;;;;;;;16.91;83.95;100091.38;8286360;28;20080;-55
2023/03/29 18:20:08;;;;;;;4.28;1.67;;;;;;;16.86;83.86;100094.69;8286490;28;20516;-54
2023/03/29 18:24:09;;;;;;;7.97;2.20;;;;;;;16.84;83.75;100090.47;8287787;28;20049;-55
2023/03/29 18:28:10;;;;;;;4.45;1.80;;;;;;;16.78;83.80;100086.63;8296594;28;20116;-54
2023/03/29 18:32:10;;;;;;;2.65;1.55;;;;;;;16.67;84.16;100084.34;8255864;28;20038;-54
2023/03/29 18:36:12;;;;;;;8.02;1.75;;;;;;;16.64;84.22;100072.97;8273142;28;20080;-55
2023/03/29 18:40:14;;;;;;;3.60;1.58;;;;;;;16.54;84.56;100077.88;8285406;28;20038;-55
2023/03/29 18:44:15;;;;;;;5.18;1.85;;;;;;;16.48;84.90;100082.22;8284871;28;20096;-55
2023/03/29 18:48:15;;;;;;;3.78;1.60;;;;;;;16.34;85.34;100083.00;8280855;28;20042;-55
2023/03/29 18:52:16;;;;;;;3.60;2.08;;;;;;;16.16;86.51;100081.72;8282977;28;20148;-56
2023/03/29 18:56:16;;;;;;;6.38;4.13;;;;;;;15.97;87.76;100069.44;8285404;28;20033;-55
2023/03/29 19:00:17;;;;;;;7.07;2.50;;;;;;;15.96;87.71;100062.31;8282723;28;20053;-54
2023/03/29 19:04:18;;;;;;;7.13;2.55;;;;;;;15.98;87.60;100070.31;8284146;28;20422;-55
2023/03/29 19:08:19;;;;;;;4.28;2.13;;;;;;;15.86;88.12;100058.16;8284863;28;20072;-54
2023/03/29 19:12:19;;;;;;;7.57;3.28;;;;;;;15.74;88.57;100050.41;8285296;28;20052;-54
2023/03/29 19:16:20;;;;;;;7.82;3.00;;;;;;;15.70;88.82;100046.38;8297931;28;20491;-53
2023/03/29 19:20:20;;;;;;;10.25;3.92;;;;;;;15.66;88.95;100039.59;8308702;28;20038;-55
2023/03/29 19:24:21;;;;;;;8.13;2.88;;;;;;;15.60;89.20;100043.06;8275863;28;20041;-54